Time;durP1;ratioP1;P1;durP2;ratioP2;P2;SDS_P1;SDS_P2;PMS_P1;PMS_P2;Temp;Humidity;BMP_temperature;BMP_pressure;BME280_temperature;BME280_humidity;BME280_pressure;Samples;Min_cycle;Max_cycle;Signal;HPM_P1;HPM_P2
2022/05/17 00:01:39;;;;;;;11.25;6.07;;;15.00;99.90;;;;;;5031571;28;20072;-65
2022/05/17 00:04:05;;;;;;;15.07;6.13;;;14.90;99.90;;;;;;5029346;28;20076;-65
2022/05/17 00:06:30;;;;;;;13.27;5.93;;;14.90;99.90;;;;;;5032299;28;20049;-65
2022/05/17 00:08:57;;;;;;;14.77;6.10;;;14.80;99.90;;;;;;5031518;28;20064;-64
2022/05/17 00:11:24;;;;;;;12.43;6.05;;;14.80;99.90;;;;;;5032148;28;20421;-64
2022/05/17 00:13:49;;;;;;;11.52;6.00;;;14.70;99.90;;;;;;5029988;28;20056;-64
2022/05/17 00:16:15;;;;;;;14.25;6.47;;;14.70;99.90;;;;;;5030979;28;20065;-64
2022/05/17 00:18:41;;;;;;;10.95;5.95;;;14.70;99.90;;;;;;5032015;28;20085;-64
2022/05/17 00:21:07;;;;;;;13.35;6.20;;;14.60;99.90;;;;;;5031124;28;20104;-64
2022/05/17 00:23:36;;;;;;;10.85;6.55;;;14.60;99.90;;;;;;5047416;28;20045;-64
2022/05/17 00:26:03;;;;;;;14.15;6.60;;;14.60;99.90;;;;;;5015487;28;20049;-64
2022/05/17 00:28:28;;;;;;;15.48;6.38;;;14.50;99.90;;;;;;5032872;28;20069;-64
2022/05/17 00:30:54;;;;;;;12.40;6.15;;;14.40;99.90;;;;;;5029568;28;20127;-64
2022/05/17 00:33:21;;;;;;;10.52;6.45;;;14.30;99.90;;;;;;5027775;28;20536;-64
2022/05/17 00:35:47;;;;;;;12.90;6.65;;;14.30;99.90;;;;;;5030604;28;20049;-64
2022/05/17 00:38:14;;;;;;;16.58;7.28;;;14.30;99.90;;;;;;5033287;28;20402;-65
2022/05/17 00:40:40;;;;;;;13.43;6.82;;;14.20;99.90;;;;;;5032697;28;20100;-64
2022/05/17 00:43:08;;;;;;;14.85;7.05;;;14.20;99.90;;;;;;5030944;28;20409;-65
2022/05/17 00:45:35;;;;;;;12.70;6.72;;;14.10;99.90;;;;;;5031117;28;20053;-64
2022/05/17 00:48:08;;;;;;;15.77;7.20;;;14.10;99.90;;;;;;5031033;28;20045;-64
2022/05/17 00:50:47;;;;;;;15.93;7.82;;;14.10;99.90;;;;;;5029852;28;20056;-65
2022/05/17 00:53:19;;;;;;;13.10;6.95;;;14.00;99.90;;;;;;5030688;28;20049;-64
2022/05/17 00:56:07;;;;;;;16.50;8.13;;;14.00;99.90;;;;;;5031391;28;20187;-64
2022/05/17 00:58:46;;;;;;;13.18;7.60;;;14.00;99.90;;;;;;5031528;28;20099;-64
2022/05/17 01:01:15;;;;;;;12.52;7.38;;;13.90;99.90;;;;;;5031160;28;20431;-64
2022/05/17 01:03:56;;;;;;;17.15;8.15;;;13.90;99.90;;;;;;5031109;28;20375;-64
2022/05/17 01:06:24;;;;;;;17.95;8.68;;;13.90;99.90;;;;;;5031622;28;20108;-64
2022/05/17 01:08:50;;;;;;;18.65;8.50;;;13.90;99.90;;;;;;5030812;28;20058;-64
2022/05/17 01:11:16;;;;;;;12.27;7.72;;;13.80;99.90;;;;;;5031668;28;20073;-64
2022/05/17 01:16:27;;;;;;;20.10;9.73;;;13.80;99.90;;;;;;5034006;28;20060;-64
2022/05/17 01:18:53;;;;;;;16.05;9.70;;;13.80;99.90;;;;;;5034058;28;20486;-66
2022/05/17 01:21:19;;;;;;;15.85;8.55;;;13.80;99.90;;;;;;5034341;28;20053;-64
2022/05/17 01:23:45;;;;;;;15.80;9.35;;;13.80;99.90;;;;;;5035717;28;20474;-66
2022/05/17 01:26:20;;;;;;;18.13;9.15;;;13.80;99.90;;;;;;5034404;28;20076;-64
2022/05/17 01:28:48;;;;;;;16.15;8.38;;;13.80;99.90;;;;;;5034673;28;20045;-63
2022/05/17 01:31:14;;;;;;;17.65;8.48;;;13.80;99.90;;;;;;5035401;28;20053;-64
2022/05/17 01:33:40;;;;;;;15.35;8.13;;;13.80;99.90;;;;;;5031839;28;20103;-64
2022/05/17 01:36:09;;;;;;;9.73;7.72;;;13.80;99.90;;;;;;5035249;28;20085;-64
2022/05/17 01:38:35;;;;;;;15.50;8.73;;;13.70;99.90;;;;;;5034473;28;20059;-64
2022/05/17 01:41:02;;;;;;;12.75;8.23;;;13.70;99.90;;;;;;5036132;28;20084;-65
2022/05/17 01:43:28;;;;;;;13.80;7.65;;;13.70;99.90;;;;;;5033910;28;20046;-64
2022/05/17 01:45:53;;;;;;;15.20;8.88;;;13.70;99.90;;;;;;5035560;28;20103;-63
2022/05/17 01:48:19;;;;;;;16.45;8.95;;;13.70;99.90;;;;;;5033369;28;20441;-64
2022/05/17 01:50:45;;;;;;;15.48;8.45;;;13.70;99.90;;;;;;5034157;28;20128;-64
2022/05/17 01:53:11;;;;;;;17.13;8.90;;;13.60;99.90;;;;;;5033529;28;20432;-65
2022/05/17 01:55:37;;;;;;;16.40;8.52;;;13.60;99.90;;;;;;5034933;28;20053;-64
2022/05/17 01:58:03;;;;;;;14.23;8.05;;;13.60;99.90;;;;;;5034679;28;20421;-65
2022/05/17 02:00:30;;;;;;;19.52;8.30;;;13.60;99.90;;;;;;5036161;28;20053;-64
2022/05/17 02:02:56;;;;;;;13.10;7.95;;;13.60;99.90;;;;;;5031791;28;20053;-64
2022/05/17 02:05:23;;;;;;;18.95;8.55;;;13.50;99.90;;;;;;5033851;28;20076;-64
2022/05/17 02:07:53;;;;;;;15.82;8.07;;;13.50;99.90;;;;;;5034100;28;20049;-64
2022/05/17 02:10:20;;;;;;;19.13;8.85;;;13.50;99.90;;;;;;5033477;28;20510;-64
2022/05/17 02:12:46;;;;;;;18.92;8.65;;;13.40;99.90;;;;;;5032813;28;20066;-64
2022/05/17 02:15:12;;;;;;;15.77;8.38;;;13.40;99.90;;;;;;5034722;28;20053;-64
2022/05/17 02:17:38;;;;;;;14.25;7.82;;;13.40;99.90;;;;;;5033943;28;20049;-64
2022/05/17 02:20:06;;;;;;;14.90;8.18;;;13.40;99.90;;;;;;5034200;28;20120;-64
2022/05/17 02:22:32;;;;;;;12.30;7.80;;;13.40;99.90;;;;;;5034294;28;20425;-64
2022/05/17 02:24:58;;;;;;;16.50;8.50;;;13.30;99.90;;;;;;5033366;28;20046;-64
2022/05/17 02:27:23;;;;;;;13.30;7.57;;;13.30;99.90;;;;;;5034415;28;20111;-65
2022/05/17 02:29:49;;;;;;;14.90;8.45;;;13.30;99.90;;;;;;5034004;28;20045;-65
2022/05/17 02:32:14;;;;;;;19.90;8.05;;;13.30;99.90;;;;;;5015427;28;20457;-64
2022/05/17 02:34:41;;;;;;;10.88;7.10;;;13.30;99.90;;;;;;5032411;28;20140;-64
2022/05/17 02:37:06;;;;;;;16.38;8.05;;;13.20;99.90;;;;;;5033684;28;20402;-64
2022/05/17 02:39:32;;;;;;;15.63;7.43;;;13.20;99.90;;;;;;5034665;28;20050;-64
2022/05/17 02:41:58;;;;;;;18.60;9.00;;;13.20;99.90;;;;;;5031406;28;20091;-64
2022/05/17 02:44:24;;;;;;;15.30;8.25;;;13.10;99.90;;;;;;5032463;28;20402;-64
2022/05/17 02:46:50;;;;;;;13.88;8.23;;;13.10;99.90;;;;;;5033643;28;20102;-65
2022/05/17 02:49:15;;;;;;;16.05;7.75;;;13.10;99.90;;;;;;5033511;28;20481;-63
2022/05/17 02:51:41;;;;;;;16.65;8.68;;;13.10;99.90;;;;;;5032964;28;20060;-64
2022/05/17 02:54:10;;;;;;;17.77;8.18;;;13.10;99.90;;;;;;5032582;28;20053;-64
2022/05/17 02:56:36;;;;;;;12.20;6.97;;;13.00;99.90;;;;;;5033808;28;20525;-66
2022/05/17 02:59:02;;;;;;;19.40;8.25;;;13.00;99.90;;;;;;5034827;28;20092;-64
2022/05/17 03:01:27;;;;;;;14.93;7.75;;;13.00;99.90;;;;;;5028139;28;20061;-64
2022/05/17 03:03:53;;;;;;;18.95;8.73;;;13.00;99.90;;;;;;5023535;28;20045;-64
2022/05/17 03:06:18;;;;;;;17.70;8.15;;;13.00;99.90;;;;;;5034287;28;20060;-64
2022/05/17 03:08:44;;;;;;;13.88;7.60;;;13.00;99.90;;;;;;5032838;28;20052;-64
2022/05/17 03:11:09;;;;;;;16.10;8.00;;;12.90;99.90;;;;;;5031555;28;20129;-64
2022/05/17 03:13:36;;;;;;;15.25;8.13;;;12.90;99.90;;;;;;5032430;28;20069;-64
2022/05/17 03:16:02;;;;;;;14.88;7.97;;;12.90;99.90;;;;;;5033786;28;20127;-64
2022/05/17 03:18:28;;;;;;;18.95;8.38;;;12.90;99.90;;;;;;5031768;28;20073;-65
2022/05/17 03:20:53;;;;;;;18.83;8.15;;;12.90;99.90;;;;;;5034072;28;20091;-63
2022/05/17 03:23:19;;;;;;;15.15;7.60;;;12.90;99.90;;;;;;5030990;28;20136;-65
2022/05/17 03:25:45;;;;;;;17.83;8.70;;;12.80;99.90;;;;;;5031967;28;20128;-64
2022/05/17 03:28:12;;;;;;;18.25;8.18;;;12.80;99.90;;;;;;5033762;28;20062;-65
2022/05/17 03:30:39;;;;;;;19.15;8.32;;;12.80;99.90;;;;;;5032130;28;20100;-63
2022/05/17 03:33:05;;;;;;;21.98;8.93;;;12.80;99.90;;;;;;5029140;28;20451;-64
2022/05/17 03:35:30;;;;;;;18.10;8.75;;;12.80;99.90;;;;;;5032754;28;20079;-65
2022/05/17 03:37:56;;;;;;;12.98;7.85;;;12.80;99.90;;;;;;5033425;28;20045;-64
2022/05/17 03:40:21;;;;;;;18.30;8.82;;;12.80;99.90;;;;;;5032897;28;20053;-64
2022/05/17 03:42:47;;;;;;;15.95;8.48;;;12.70;99.90;;;;;;5033797;28;20478;-63
2022/05/17 03:45:13;;;;;;;22.95;9.85;;;12.80;99.90;;;;;;5031139;28;20493;-64
2022/05/17 03:47:39;;;;;;;17.60;9.15;;;12.70;99.90;;;;;;5031602;28;20450;-64
2022/05/17 03:50:05;;;;;;;20.48;9.85;;;12.70;99.90;;;;;;5031568;28;20049;-64
2022/05/17 03:52:32;;;;;;;18.40;8.93;;;12.70;99.90;;;;;;5032333;28;20387;-63
2022/05/17 03:54:59;;;;;;;19.55;9.60;;;12.80;99.90;;;;;;5032830;28;20099;-65
2022/05/17 03:57:25;;;;;;;20.88;9.23;;;12.80;99.90;;;;;;5032453;28;20063;-64
2022/05/17 03:59:51;;;;;;;15.57;8.82;;;12.80;99.90;;;;;;5033302;28;20510;-64
2022/05/17 04:02:17;;;;;;;14.80;9.45;;;12.80;99.90;;;;;;5031770;28;20049;-64
2022/05/17 04:04:43;;;;;;;17.48;8.93;;;12.90;99.90;;;;;;5029254;28;20410;-65
2022/05/17 04:07:08;;;;;;;21.23;10.02;;;12.90;99.90;;;;;;5031760;28;20064;-65
2022/05/17 04:09:34;;;;;;;16.77;8.70;;;12.90;99.90;;;;;;5031444;28;20053;-64
2022/05/17 04:11:59;;;;;;;18.50;9.27;;;13.00;99.90;;;;;;5031667;28;20064;-64
2022/05/17 04:14:25;;;;;;;21.70;10.25;;;13.00;99.90;;;;;;5032202;28;20057;-66
2022/05/17 04:16:51;;;;;;;20.15;9.57;;;13.00;99.90;;;;;;5031158;28;20053;-64
2022/05/17 04:19:17;;;;;;;15.40;8.30;;;13.10;99.90;;;;;;5031529;28;20136;-65
2022/05/17 04:21:44;;;;;;;17.30;9.23;;;13.20;99.90;;;;;;5030710;28;20061;-65
2022/05/17 04:24:10;;;;;;;15.05;9.43;;;13.30;99.90;;;;;;5031322;28;20045;-64
2022/05/17 04:26:35;;;;;;;14.25;8.82;;;13.30;99.90;;;;;;5032087;28;20497;-64
2022/05/17 04:29:01;;;;;;;23.85;10.48;;;13.40;99.90;;;;;;5033112;28;20049;-64
2022/05/17 04:31:27;;;;;;;15.77;8.55;;;13.40;99.90;;;;;;5029993;28;20107;-64
2022/05/17 04:33:53;;;;;;;18.90;9.23;;;13.50;99.90;;;;;;5028681;28;20061;-65
2022/05/17 04:36:18;;;;;;;17.88;9.35;;;13.50;99.90;;;;;;5031207;28;20083;-64
2022/05/17 04:38:45;;;;;;;17.10;8.75;;;13.50;99.90;;;;;;5031127;28;20053;-65
2022/05/17 04:41:10;;;;;;;18.20;8.90;;;13.60;99.90;;;;;;5032485;28;20494;-65
2022/05/17 04:43:36;;;;;;;19.38;9.05;;;13.60;99.90;;;;;;5030129;28;20053;-64
2022/05/17 04:46:02;;;;;;;17.45;8.85;;;13.70;99.90;;;;;;5032512;28;20050;-64
2022/05/17 04:48:27;;;;;;;14.27;8.18;;;13.80;99.90;;;;;;5029125;28;20053;-65
2022/05/17 04:50:53;;;;;;;18.40;8.55;;;13.80;99.90;;;;;;5029603;28;20045;-64
2022/05/17 04:53:19;;;;;;;12.65;8.18;;;13.90;99.90;;;;;;5031007;28;20049;-66
2022/05/17 04:55:45;;;;;;;15.95;9.15;;;13.90;99.90;;;;;;5032237;28;20085;-64
2022/05/17 04:58:11;;;;;;;12.93;8.20;;;13.90;99.90;;;;;;5029471;28;20056;-64
2022/05/17 05:00:37;;;;;;;12.68;7.13;;;13.90;99.90;;;;;;5029701;28;20056;-65
2022/05/17 05:03:03;;;;;;;13.20;7.75;;;14.00;99.90;;;;;;5028921;28;20088;-65
2022/05/17 05:05:29;;;;;;;18.88;8.95;;;14.00;99.90;;;;;;5029627;28;20128;-63
2022/05/17 05:07:54;;;;;;;18.13;8.38;;;14.10;99.90;;;;;;5030157;28;20442;-63
2022/05/17 05:10:22;;;;;;;13.50;7.35;;;14.20;99.90;;;;;;5027397;28;20041;-65
2022/05/17 05:12:48;;;;;;;16.20;7.97;;;14.30;99.90;;;;;;5030886;28;20097;-64
2022/05/17 05:15:14;;;;;;;12.85;8.00;;;14.40;99.90;;;;;;5030607;28;20053;-65
2022/05/17 05:17:40;;;;;;;16.08;8.35;;;14.50;99.90;;;;;;5028223;28;20534;-64
2022/05/17 05:20:10;;;;;;;13.38;7.95;;;14.60;99.90;;;;;;5030146;28;20064;-67
2022/05/17 05:22:37;;;;;;;13.98;8.07;;;14.60;99.90;;;;;;5029342;28;20421;-64
2022/05/17 05:25:03;;;;;;;15.18;7.97;;;14.70;99.90;;;;;;5032299;28;20053;-64
2022/05/17 05:27:36;;;;;;;13.57;7.70;;;14.80;99.90;;;;;;5029893;28;20482;-63
2022/05/17 05:30:04;;;;;;;15.30;7.25;;;14.90;99.90;;;;;;5029340;28;20136;-65
2022/05/17 05:32:30;;;;;;;14.20;7.57;;;15.10;99.90;;;;;;5029708;28;20185;-64
2022/05/17 05:34:56;;;;;;;13.93;7.70;;;15.50;99.90;;;;;;5032143;28;20154;-63
2022/05/17 05:37:21;;;;;;;14.80;6.88;;;16.10;99.90;;;;;;5031184;28;20346;-66
2022/05/17 05:39:47;;;;;;;15.48;7.03;;;16.50;99.90;;;;;;5031317;28;20145;-64
2022/05/17 05:42:12;;;;;;;14.45;7.38;;;17.20;99.90;;;;;;5032033;28;20061;-64
2022/05/17 05:44:38;;;;;;;16.05;7.10;;;18.10;99.90;;;;;;5028746;28;20057;-65
2022/05/17 05:47:05;;;;;;;12.73;7.63;;;19.00;99.90;;;;;;5025067;28;20413;-63
2022/05/17 05:49:31;;;;;;;11.63;6.57;;;19.50;99.90;;;;;;5030994;28;20203;-64
2022/05/17 05:51:57;;;;;;;11.90;6.75;;;19.50;99.90;;;;;;5029871;28;20613;-66
2022/05/17 05:54:22;;;;;;;12.23;6.18;;;19.30;99.90;;;;;;5032244;28;20049;-64
2022/05/17 05:56:48;;;;;;;13.48;6.35;;;19.20;99.90;;;;;;5030935;28;20058;-64
2022/05/17 05:59:14;;;;;;;12.55;6.20;;;18.90;99.90;;;;;;5031588;28;20060;-65
2022/05/17 06:01:40;;;;;;;16.55;6.72;;;18.80;99.90;;;;;;5031081;28;20057;-66
2022/05/17 06:04:06;;;;;;;11.35;6.55;;;18.70;99.90;;;;;;5034139;28;20052;-65
2022/05/17 06:06:32;;;;;;;11.32;5.97;;;18.60;99.90;;;;;;5030430;28;20041;-64
2022/05/17 06:08:58;;;;;;;11.18;5.70;;;18.40;99.90;;;;;;5031749;28;20057;-64
2022/05/17 06:11:23;;;;;;;13.63;6.25;;;18.40;99.90;;;;;;5033036;28;20045;-66
2022/05/17 06:13:50;;;;;;;9.85;5.80;;;18.50;99.90;;;;;;5035532;28;20125;-63
2022/05/17 06:16:16;;;;;;;11.85;5.70;;;18.70;99.90;;;;;;5034115;28;20131;-65
2022/05/17 06:18:42;;;;;;;9.77;5.63;;;18.80;99.90;;;;;;5033805;28;20049;-65
2022/05/17 06:21:08;;;;;;;13.43;6.10;;;18.90;99.90;;;;;;5034347;28;20125;-66
2022/05/17 06:23:35;;;;;;;8.88;5.65;;;18.90;99.90;;;;;;5035048;28;20513;-65
2022/05/17 06:26:01;;;;;;;10.07;5.53;;;18.80;99.90;;;;;;5033945;28;20057;-64
2022/05/17 06:28:26;;;;;;;12.93;5.78;;;18.60;99.90;;;;;;5034186;28;20058;-65
2022/05/17 06:30:52;;;;;;;10.23;5.05;;;18.40;99.90;;;;;;5033781;28;20061;-65
2022/05/17 06:33:17;;;;;;;12.35;5.88;;;18.40;99.90;;;;;;5034005;28;20057;-65
2022/05/17 06:35:45;;;;;;;10.43;5.43;;;18.20;99.90;;;;;;5033757;28;20046;-64
2022/05/17 06:38:10;;;;;;;10.07;5.10;;;18.10;99.90;;;;;;5035248;28;20050;-65
2022/05/17 06:40:37;;;;;;;11.93;5.82;;;17.90;99.90;;;;;;5033655;28;20112;-65
2022/05/17 06:43:03;;;;;;;10.18;5.28;;;18.00;99.90;;;;;;5032698;28;20585;-67
2022/05/17 06:45:29;;;;;;;11.43;5.38;;;18.10;99.90;;;;;;5032499;28;20045;-68
2022/05/17 06:47:54;;;;;;;12.63;5.60;;;18.10;99.90;;;;;;5032524;28;20050;-65
2022/05/17 06:50:20;;;;;;;9.18;5.07;;;18.20;99.90;;;;;;5033802;28;20041;-65
2022/05/17 06:52:46;;;;;;;10.05;4.93;;;18.40;99.90;;;;;;5031545;28;20069;-64
2022/05/17 06:55:12;;;;;;;13.25;5.20;;;18.60;99.90;;;;;;5032154;28;20136;-65
2022/05/17 06:57:40;;;;;;;13.98;5.00;;;18.70;99.90;;;;;;5034719;28;20437;-65
2022/05/17 07:00:08;;;;;;;9.73;5.40;;;18.80;99.90;;;;;;5033878;28;20053;-65
2022/05/17 07:02:35;;;;;;;11.18;5.53;;;18.90;99.90;;;;;;5033556;28;20073;-65
2022/05/17 07:05:01;;;;;;;12.18;4.97;;;19.00;99.90;;;;;;5033116;28;20049;-65
2022/05/17 07:07:27;;;;;;;10.25;4.72;;;19.10;99.90;;;;;;5032195;28;20138;-65
2022/05/17 07:15:21;;;;;;;8.05;4.90;;;19.20;99.90;;;;;;5015766;28;20049;-64
2022/05/17 07:17:47;;;;;;;9.48;4.80;;;19.00;99.90;;;;;;5030492;28;20460;-65
2022/05/17 07:20:13;;;;;;;10.23;4.82;;;19.10;99.90;;;;;;5032674;28;20103;-64
2022/05/17 07:22:39;;;;;;;11.57;5.20;;;19.10;99.90;;;;;;5033476;28;20053;-65
2022/05/17 07:25:05;;;;;;;12.43;5.18;;;19.20;99.90;;;;;;5032203;28;20052;-64
2022/05/17 07:27:31;;;;;;;11.85;4.90;;;19.30;99.90;;;;;;5032163;28;20052;-64
2022/05/17 07:29:56;;;;;;;11.90;5.03;;;19.40;99.90;;;;;;5031518;28;20050;-64
2022/05/17 07:32:22;;;;;;;8.13;4.55;;;19.40;99.90;;;;;;5032275;28;20096;-65
2022/05/17 07:34:47;;;;;;;9.93;5.18;;;19.60;99.90;;;;;;5032706;28;20045;-63
2022/05/17 07:37:14;;;;;;;9.27;4.32;;;19.50;99.90;;;;;;5032978;28;20053;-65
2022/05/17 07:39:40;;;;;;;8.95;4.63;;;19.40;99.90;;;;;;5033849;28;20041;-64
2022/05/17 07:42:06;;;;;;;11.27;4.68;;;19.40;99.90;;;;;;5033796;28;20053;-63
2022/05/17 07:44:32;;;;;;;10.45;5.28;;;19.40;99.90;;;;;;5033867;28;20077;-64
2022/05/17 07:46:58;;;;;;;11.40;5.10;;;19.60;99.90;;;;;;5032184;28;20151;-64
2022/05/17 07:49:24;;;;;;;10.10;4.95;;;19.70;99.90;;;;;;5032304;28;20485;-64
2022/05/17 07:51:50;;;;;;;10.05;4.65;;;19.80;99.90;;;;;;5032606;28;20490;-64
2022/05/17 07:54:15;;;;;;;9.63;4.20;;;19.90;99.90;;;;;;5033644;28;20057;-63
2022/05/17 07:56:41;;;;;;;12.95;5.05;;;19.90;99.90;;;;;;5032256;28;20389;-65
2022/05/17 07:59:07;;;;;;;8.77;4.22;;;20.00;99.90;;;;;;5031289;28;20049;-65
2022/05/17 08:01:33;;;;;;;7.97;4.45;;;19.90;99.90;;;;;;5031140;28;20057;-64
2022/05/17 08:03:58;;;;;;;8.27;4.40;;;20.20;99.90;;;;;;5031824;28;20056;-65
2022/05/17 08:06:24;;;;;;;10.32;4.38;;;20.20;99.90;;;;;;5031564;28;20041;-64
2022/05/17 08:08:50;;;;;;;11.40;5.05;;;20.20;99.90;;;;;;5031095;28;20546;-64
2022/05/17 08:11:15;;;;;;;12.32;4.00;;;20.30;99.90;;;;;;5032733;28;20057;-63
2022/05/17 08:13:41;;;;;;;8.95;4.35;;;20.40;99.90;;;;;;5031630;28;20049;-64
2022/05/17 08:16:06;;;;;;;14.82;4.65;;;20.40;99.90;;;;;;5031132;28;20482;-65
2022/05/17 08:18:32;;;;;;;10.13;4.32;;;20.50;99.90;;;;;;5032306;28;20053;-63
2022/05/17 08:20:58;;;;;;;10.23;3.92;;;20.50;99.90;;;;;;5031944;28;20045;-65
2022/05/17 08:23:23;;;;;;;8.95;3.38;;;20.60;99.90;;;;;;5032427;28;20103;-63
2022/05/17 08:28:33;;;;;;;8.82;3.53;;;20.80;99.90;;;;;;5033045;28;20414;-62
2022/05/17 08:30:59;;;;;;;8.13;3.50;;;20.90;99.90;;;;;;5030823;28;20053;-65
2022/05/17 08:33:26;;;;;;;8.73;3.47;;;21.00;99.90;;;;;;5032024;28;20057;-65
2022/05/17 08:36:00;;;;;;;10.30;3.35;;;21.10;99.90;;;;;;5033066;28;20046;-64
2022/05/17 08:38:35;;;;;;;7.35;2.90;;;21.10;99.90;;;;;;5031157;28;20049;-63
2022/05/17 08:41:11;;;;;;;5.53;2.30;;;21.20;99.90;;;;;;5032990;28;20049;-66
2022/05/17 08:43:57;;;;;;;9.63;3.50;;;21.30;99.90;;;;;;5031263;28;20151;-63
2022/05/17 08:46:26;;;;;;;7.38;2.85;;;21.30;99.90;;;;;;5031890;28;20457;-62
2022/05/17 08:49:21;;;;;;;7.68;2.70;;;21.40;99.90;;;;;;5032460;28;20053;-64
2022/05/17 08:51:58;;;;;;;9.25;2.88;;;21.40;99.90;;;;;;5030163;28;20398;-64
2022/05/17 08:54:29;;;;;;;6.88;2.58;;;21.50;99.90;;;;;;5031014;28;20469;-64
2022/05/17 08:57:23;;;;;;;6.30;2.05;;;21.10;99.90;;;;;;5028809;28;20501;-63
2022/05/17 08:59:49;;;;;;;6.07;1.83;;;21.60;99.90;;;;;;5032156;28;20049;-63
2022/05/17 09:02:31;;;;;;;6.45;2.65;;;21.60;99.90;;;;;;5031606;28;20123;-64
2022/05/17 09:05:16;;;;;;;8.27;2.22;;;21.60;99.90;;;;;;5032748;28;20051;-63
2022/05/17 09:08:01;;;;;;;5.15;1.77;;;21.60;99.90;;;;;;5030906;28;20053;-63
2022/05/17 09:10:32;;;;;;;6.95;2.40;;;21.70;99.90;;;;;;5031478;28;20144;-64
2022/05/17 09:13:06;;;;;;;6.15;2.10;;;21.70;99.90;;;;;;5032180;28;20489;-63
2022/05/17 09:15:31;;;;;;;8.38;2.03;;;21.80;99.90;;;;;;5033113;28;20156;-65
2022/05/17 09:18:03;;;;;;;8.38;2.30;;;21.90;99.90;;;;;;5031926;28;20534;-64
2022/05/17 09:20:33;;;;;;;5.13;1.75;;;22.00;99.90;;;;;;5032569;28;20045;-64
2022/05/17 09:22:59;;;;;;;6.80;1.83;;;22.10;99.90;;;;;;5032221;28;20105;-65
2022/05/17 09:25:50;;;;;;;5.25;1.80;;;21.50;99.90;;;;;;5032617;28;20050;-64
2022/05/17 09:28:27;;;;;;;6.13;1.98;;;22.10;99.90;;;;;;5031678;28;20481;-64
2022/05/17 09:31:15;;;;;;;4.93;1.52;;;22.20;99.90;;;;;;5030688;28;20509;-64
2022/05/17 09:33:42;;;;;;;6.70;1.80;;;22.40;99.90;;;;;;5032325;28;20050;-64
2022/05/17 09:36:15;;;;;;;7.07;2.15;;;22.40;99.90;;;;;;5033966;28;20053;-64
2022/05/17 09:38:41;;;;;;;6.50;1.77;;;22.50;99.90;;;;;;5035995;28;20046;-64
2022/05/17 09:41:11;;;;;;;5.70;1.85;;;22.60;99.90;;;;;;5036188;28;20054;-64
2022/05/17 09:43:37;;;;;;;4.47;1.70;;;22.80;99.90;;;;;;5034912;28;20046;-64
2022/05/17 09:46:11;;;;;;;6.07;1.90;;;22.80;99.90;;;;;;5035441;28;20065;-65
2022/05/17 09:54:29;;;;;;;5.78;1.92;;;23.20;97.00;;;;;;5033049;28;20057;-64
2022/05/17 09:57:16;;;;;;;7.05;2.08;;;23.40;87.00;;;;;;5034889;28;20181;-63
2022/05/17 09:59:43;;;;;;;4.30;1.83;;;23.40;69.20;;;;;;5048601;28;20501;-64
2022/05/17 10:02:30;;;;;;;5.13;1.58;;;23.30;90.50;;;;;;5034043;28;20056;-63
2022/05/17 10:05:18;;;;;;;4.53;1.45;;;23.30;70.60;;;;;;5035852;28;20111;-65
2022/05/17 10:08:02;;;;;;;6.15;1.55;;;23.30;84.60;;;;;;5033953;28;20453;-64
2022/05/17 10:10:35;;;;;;;4.45;1.50;;;23.00;68.60;;;;;;5033524;28;20447;-64
2022/05/17 10:13:35;;;;;;;4.20;1.48;;;23.00;76.20;;;;;;5032838;28;20060;-64
2022/05/17 10:16:08;;;;;;;4.35;1.67;;;22.90;69.20;;;;;;5033170;28;20152;-65
2022/05/17 10:18:53;;;;;;;5.90;1.40;;;22.90;86.00;;;;;;5032109;28;20049;-64
2022/05/17 10:21:48;;;;;;;4.68;1.33;;;22.80;74.50;;;;;;5033239;28;20045;-64
2022/05/17 10:24:31;;;;;;;9.07;2.25;;;23.00;71.60;;;;;;5033339;28;20058;-64
2022/05/17 10:27:06;;;;;;;;;;;23.10;70.50;;;;;;5015095;28;20116;-67
2022/05/17 10:29:45;;;;;;;4.40;1.92;;;23.00;68.10;;;;;;5032739;28;19956;-65
2022/05/17 10:32:35;;;;;;;7.07;1.75;;;23.10;72.70;;;;;;5033053;28;20142;-65
2022/05/17 10:35:09;;;;;;;4.70;1.83;;;23.10;78.50;;;;;;5034436;28;20045;-65
2022/05/17 10:37:53;;;;;;;5.88;1.50;;;23.20;70.40;;;;;;5035041;28;20371;-64
2022/05/17 10:40:24;;;;;;;4.82;1.58;;;23.20;76.20;;;;;;5034729;28;20056;-65
2022/05/17 10:42:50;;;;;;;4.80;1.63;;;23.20;76.40;;;;;;5033683;28;20057;-64
2022/05/17 10:45:21;;;;;;;4.05;1.50;;;23.10;76.20;;;;;;5033399;28;20066;-63
2022/05/17 10:47:54;;;;;;;5.55;1.60;;;23.00;75.30;;;;;;5033503;28;20355;-64
2022/05/17 10:50:42;;;;;;;3.47;1.20;;;23.00;80.20;;;;;;5034869;28;20168;-65
2022/05/17 10:53:17;;;;;;;7.03;1.90;;;23.00;77.70;;;;;;5034613;28;20057;-65
2022/05/17 10:56:10;;;;;;;8.77;1.30;;;23.10;82.30;;;;;;5033358;28;20049;-66
2022/05/17 10:58:50;;;;;;;5.32;1.58;;;23.10;72.80;;;;;;5032454;28;20053;-65
2022/05/17 11:01:48;;;;;;;9.40;1.70;;;23.00;71.30;;;;;;5026802;28;20076;-65
2022/05/17 11:04:36;;;;;;;5.88;2.10;;;23.00;81.70;;;;;;5032456;28;20509;-66
2022/05/17 11:07:19;;;;;;;8.73;2.63;;;23.00;90.60;;;;;;5032621;28;20118;-64
2022/05/17 11:10:03;;;;;;;8.07;2.40;;;22.90;99.90;;;;;;5034470;28;20363;-64
2022/05/17 11:12:39;;;;;;;7.00;2.33;;;23.00;99.90;;;;;;5032595;28;20084;-64
2022/05/17 11:15:14;;;;;;;7.97;2.33;;;22.90;99.90;;;;;;5033592;28;20057;-66
2022/05/17 11:17:55;;;;;;;8.25;2.35;;;22.90;99.90;;;;;;5030603;28;20553;-63
2022/05/17 11:20:29;;;;;;;7.28;2.55;;;22.90;99.90;;;;;;5021123;28;20160;-63
2022/05/17 11:23:20;;;;;;;6.18;2.10;;;23.00;99.90;;;;;;5014288;28;20057;-62
2022/05/17 11:26:28;;;;;;;6.45;2.22;;;22.90;99.90;;;;;;5013162;28;20130;-62
2022/05/17 11:29:15;;;;;;;10.90;2.38;;;22.90;97.90;;;;;;5016141;28;20422;-63
2022/05/17 11:32:00;;;;;;;8.07;2.53;;;23.10;99.90;;;;;;5020964;28;20502;-63
2022/05/17 11:34:32;;;;;;;5.97;2.03;;;23.30;99.90;;;;;;5016119;28;20049;-63
2022/05/17 11:37:01;;;;;;;5.35;2.22;;;23.40;99.90;;;;;;5032321;28;20045;-64
2022/05/17 11:39:35;;;;;;;10.40;2.80;;;23.40;99.90;;;;;;5032710;28;20063;-66
2022/05/17 11:42:06;;;;;;;8.07;2.30;;;23.60;99.90;;;;;;5032322;28;20045;-65
2022/05/17 11:44:48;;;;;;;9.25;2.28;;;23.60;99.90;;;;;;5033866;28;20367;-64
2022/05/17 11:47:28;;;;;;;8.02;2.53;;;23.80;99.90;;;;;;5033202;28;20521;-66
2022/05/17 11:50:21;;;;;;;4.78;2.10;;;23.70;98.40;;;;;;5032342;28;20387;-62
2022/05/17 11:53:24;;;;;;;6.43;1.90;;;23.50;99.20;;;;;;5031860;28;20057;-64
2022/05/17 11:56:32;;;;;;;6.63;2.22;;;23.20;94.80;;;;;;5028748;28;20061;-64
2022/05/17 11:59:08;;;;;;;6.32;2.17;;;23.00;96.10;;;;;;5012044;28;20081;-65
2022/05/17 12:01:35;;;;;;;4.32;1.67;;;23.20;98.00;;;;;;5011893;28;20046;-65
2022/05/17 12:04:02;;;;;;;5.78;1.77;;;23.20;96.70;;;;;;5013635;28;20042;-64
2022/05/17 12:06:49;;;;;;;4.88;1.83;;;23.20;99.70;;;;;;5012274;28;20054;-65
2022/05/17 12:09:24;;;;;;;6.68;2.33;;;23.30;96.70;;;;;;5025181;28;20061;-64
2022/05/17 12:12:05;;;;;;;4.85;2.00;;;23.20;94.50;;;;;;5032859;28;20132;-65
2022/05/17 12:14:54;;;;;;;7.88;2.15;;;23.30;94.60;;;;;;5032101;28;20064;-66
2022/05/17 12:17:32;;;;;;;5.13;2.05;;;23.30;96.20;;;;;;5031083;28;20065;-63
2022/05/17 12:20:06;;;;;;;8.40;2.20;;;23.30;99.60;;;;;;5031174;28;20062;-65
2022/05/17 12:22:59;;;;;;;4.95;1.85;;;23.20;96.90;;;;;;5032111;28;20515;-65
2022/05/17 12:25:49;;;;;;;10.02;3.38;;;23.10;90.40;;;;;;5031459;28;20053;-64
2022/05/17 12:28:33;;;;;;;7.47;2.22;;;23.20;99.90;;;;;;5031662;28;20056;-64
2022/05/17 12:31:02;;;;;;;6.80;2.50;;;23.40;99.90;;;;;;5032360;28;20054;-65
2022/05/17 12:33:34;;;;;;;9.18;3.08;;;23.70;99.90;;;;;;5031028;28;20045;-64
2022/05/17 12:36:21;;;;;;;7.50;2.97;;;23.60;99.90;;;;;;5031560;28;20545;-68
2022/05/17 12:44:47;;;;;;;6.53;2.95;;;23.80;99.90;;;;;;5032822;28;20087;-65
2022/05/17 12:47:26;;;;;;;8.15;2.97;;;23.80;99.90;;;;;;5031864;28;20049;-65
2022/05/17 12:49:53;;;;;;;6.97;3.00;;;23.80;99.90;;;;;;5031237;28;20057;-64
2022/05/17 12:52:29;;;;;;;7.78;3.67;;;23.90;99.90;;;;;;5031682;28;20051;-65
2022/05/17 12:55:02;;;;;;;8.25;3.60;;;23.90;99.90;;;;;;5031589;28;20061;-63
2022/05/17 12:57:38;;;;;;;7.70;3.97;;;24.00;99.90;;;;;;5031321;28;20097;-66
2022/05/17 13:00:26;;;;;;;9.80;4.15;;;24.10;99.90;;;;;;5030686;28;20454;-64
2022/05/17 13:02:58;;;;;;;9.38;4.50;;;24.20;99.90;;;;;;5032302;28;20096;-65
2022/05/17 13:05:29;;;;;;;10.73;4.43;;;24.20;99.90;;;;;;5029908;28;20053;-65
2022/05/17 13:08:03;;;;;;;6.43;3.50;;;24.30;99.90;;;;;;5025152;28;20061;-65
2022/05/17 13:10:29;;;;;;;5.97;3.20;;;24.20;99.90;;;;;;5027671;28;20125;-64
2022/05/17 13:12:54;;;;;;;9.40;3.65;;;24.30;99.90;;;;;;5029833;28;20136;-65
2022/05/17 13:15:21;;;;;;;8.02;3.45;;;24.30;99.80;;;;;;5025023;28;20471;-66
2022/05/17 13:17:52;;;;;;;7.40;2.80;;;24.20;99.00;;;;;;5024828;28;20367;-65
2022/05/17 13:20:29;;;;;;;7.37;3.40;;;24.30;98.10;;;;;;5023834;28;20084;-66